Holmfirth, United Kingdom
Current Conditions -  °F | °C
As of 9:20 AM on Thursday 18 Dec 2014 (Local Time) from EGNM Reporting Station
Drizzle Drizzle  
Wind Chill: 52°   Ceiling: 800
Heat Index: 52°   Visibility: 4mi
Dew Point: 50°   Wind: 13mph
Humidity: 94%   Direction: 230°SW
Pressure: 29.53"   Gusts: NA
Location:  53.57°N, 1.79°W
Report Text: EGNM 180920Z 23011KT 190V260 6000 -DZ SCT006 BKN008 11/10 Q1000
Loading
Personal Weather Stations






























Interactive Weather Map New forecast layout! Learn more

10-Day Weather Forecast

Advertisements
Track Severe Weather on mobile